createdAt,value
2017-11-03T00:00:06.916Z,0
2017-11-03T00:01:08.343Z,0
2017-11-03T00:02:09.840Z,0
2017-11-03T00:03:11.515Z,0
2017-11-03T00:04:13.004Z,0
2017-11-03T00:05:14.447Z,0
2017-11-03T00:06:16.092Z,0
2017-11-03T00:07:17.523Z,0
2017-11-03T00:08:19.188Z,0
2017-11-03T00:09:20.595Z,0
2017-11-03T00:10:21.990Z,0
2017-11-03T00:11:23.478Z,0
2017-11-03T00:12:24.969Z,0
2017-11-03T00:13:26.390Z,0
2017-11-03T00:14:27.803Z,0
2017-11-03T00:15:29.236Z,0
2017-11-03T00:16:30.670Z,0
2017-11-03T00:17:32.105Z,0
2017-11-03T00:18:33.546Z,0
2017-11-03T00:19:35.026Z,0
2017-11-03T00:20:36.465Z,0
2017-11-03T00:21:37.929Z,0
2017-11-03T00:22:39.313Z,0
2017-11-03T00:23:42.411Z,0
2017-11-03T00:24:43.867Z,0
2017-11-03T00:25:45.312Z,0
2017-11-03T00:26:46.753Z,0
2017-11-03T00:27:48.189Z,0
2017-11-03T00:28:49.622Z,0
2017-11-03T00:29:51.025Z,0
2017-11-03T00:30:52.496Z,0
2017-11-03T00:31:54.004Z,0
2017-11-03T00:32:55.532Z,0
2017-11-03T00:33:56.951Z,0
2017-11-03T00:34:58.354Z,0
2017-11-03T00:35:59.818Z,0
2017-11-03T00:37:01.244Z,0
2017-11-03T00:38:02.661Z,0
2017-11-03T00:39:04.033Z,0
2017-11-03T00:40:05.468Z,0
2017-11-03T00:41:06.986Z,0
2017-11-03T00:42:08.395Z,0
2017-11-03T00:43:09.905Z,0
2017-11-03T00:44:11.373Z,0
2017-11-03T00:45:12.779Z,0
2017-11-03T00:46:14.258Z,0
2017-11-03T00:47:15.662Z,0
2017-11-03T00:48:17.074Z,0
2017-11-03T00:49:18.498Z,0
2017-11-03T00:50:19.958Z,0
2017-11-03T00:51:21.422Z,0
2017-11-03T00:52:22.830Z,0
2017-11-03T00:53:24.241Z,0
2017-11-03T00:54:25.704Z,0
2017-11-03T00:55:27.145Z,0
2017-11-03T00:56:28.555Z,0
2017-11-03T00:57:29.969Z,0
2017-11-03T00:58:31.423Z,0
2017-11-03T00:59:32.870Z,0
2017-11-03T01:00:34.353Z,0
2017-11-03T01:01:35.786Z,0
2017-11-03T01:02:37.186Z,0
2017-11-03T01:03:38.610Z,0
2017-11-03T01:04:40.064Z,0
2017-11-03T01:05:41.555Z,0
2017-11-03T01:06:43.042Z,0
2017-11-03T01:07:44.634Z,0
2017-11-03T01:08:46.037Z,0
2017-11-03T01:09:47.492Z,0
2017-11-03T01:10:48.924Z,0
2017-11-03T01:11:50.386Z,0
2017-11-03T01:12:51.827Z,0
2017-11-03T01:13:53.313Z,0
2017-11-03T01:14:54.744Z,0
2017-11-03T01:15:56.222Z,0
2017-11-03T01:16:57.653Z,0
2017-11-03T01:17:59.117Z,0
2017-11-03T01:19:00.587Z,0
2017-11-03T01:20:02.049Z,0
2017-11-03T01:21:03.477Z,0
2017-11-03T01:22:05.191Z,0
2017-11-03T01:23:06.800Z,0
2017-11-03T01:24:08.237Z,0
2017-11-03T01:25:09.644Z,0
2017-11-03T01:26:11.067Z,0
2017-11-03T01:27:12.494Z,0
2017-11-03T01:28:13.903Z,0
2017-11-03T01:29:15.368Z,0
2017-11-03T01:30:16.989Z,0
2017-11-03T01:31:18.714Z,0
2017-11-03T01:32:20.524Z,0
2017-11-03T01:33:22.309Z,0
2017-11-03T01:34:23.731Z,0
2017-11-03T01:35:25.208Z,0
2017-11-03T01:36:26.657Z,0
2017-11-03T01:37:28.116Z,0
2017-11-03T01:38:29.549Z,0
2017-11-03T01:39:31.104Z,0
2017-11-03T01:40:32.731Z,0
2017-11-03T01:41:34.118Z,0
2017-11-03T01:42:35.559Z,0
2017-11-03T01:43:36.972Z,0
2017-11-03T01:44:38.698Z,0
2017-11-03T01:45:40.390Z,0
2017-11-03T01:46:41.818Z,0
2017-11-03T01:47:43.224Z,0
2017-11-03T01:48:44.691Z,0
2017-11-03T01:49:46.093Z,0
2017-11-03T01:50:47.504Z,0
2017-11-03T01:51:48.943Z,0
2017-11-03T01:52:50.389Z,0
2017-11-03T01:53:51.826Z,0
2017-11-03T01:54:53.239Z,0
2017-11-03T01:55:54.645Z,0
2017-11-03T01:56:56.128Z,0
2017-11-03T01:57:57.528Z,0
2017-11-03T01:58:58.928Z,0
2017-11-03T02:00:00.386Z,0
2017-11-03T02:01:01.823Z,0
2017-11-03T02:02:03.235Z,0
2017-11-03T02:03:04.683Z,0
2017-11-03T02:04:06.175Z,0
2017-11-03T02:05:07.603Z,0
2017-11-03T02:06:09.013Z,0
2017-11-03T02:07:10.414Z,0
2017-11-03T02:08:11.833Z,0
2017-11-03T02:09:13.292Z,0
2017-11-03T02:10:14.752Z,0
2017-11-03T02:11:16.228Z,0
2017-11-03T02:12:18.026Z,0
2017-11-03T02:13:19.425Z,0
2017-11-03T02:14:20.830Z,0
2017-11-03T02:15:22.519Z,0
2017-11-03T02:16:23.966Z,0
2017-11-03T02:17:25.387Z,0
2017-11-03T02:18:26.805Z,0
2017-11-03T02:19:28.194Z,0
2017-11-03T02:20:29.598Z,0
2017-11-03T02:21:31.041Z,0
2017-11-03T02:22:32.466Z,0
2017-11-03T02:23:33.877Z,0
2017-11-03T02:24:35.570Z,0
2017-11-03T02:25:37.267Z,0
2017-11-03T02:26:38.672Z,0
2017-11-03T02:27:40.198Z,0
2017-11-03T02:28:41.650Z,0
2017-11-03T02:29:43.027Z,0
2017-11-03T02:30:44.509Z,0
2017-11-03T02:31:45.904Z,0
2017-11-03T02:32:47.357Z,0
2017-11-03T02:33:48.824Z,0
2017-11-03T02:34:50.313Z,0
2017-11-03T02:35:51.699Z,0
2017-11-03T02:36:53.373Z,0
2017-11-03T02:37:54.939Z,0
2017-11-03T02:38:56.380Z,0
2017-11-03T02:39:57.777Z,0
2017-11-03T02:40:59.435Z,0
2017-11-03T02:42:00.832Z,0
2017-11-03T02:43:02.477Z,0
2017-11-03T02:44:04.210Z,0
2017-11-03T02:45:05.999Z,0
2017-11-03T02:46:07.773Z,0
2017-11-03T02:47:09.245Z,0
2017-11-03T02:48:10.769Z,0
2017-11-03T02:49:12.225Z,0
2017-11-03T02:50:14.060Z,0
2017-11-03T02:51:15.735Z,0
2017-11-03T02:52:17.530Z,0
2017-11-03T02:53:19.322Z,0
2017-11-03T02:54:20.769Z,0
2017-11-03T02:55:22.251Z,0
2017-11-03T02:56:23.677Z,0
2017-11-03T02:57:25.402Z,0
2017-11-03T02:58:26.881Z,0
2017-11-03T02:59:28.315Z,0
2017-11-03T03:00:29.821Z,0
2017-11-03T03:01:31.294Z,0
2017-11-03T03:02:32.845Z,0
2017-11-03T03:03:34.607Z,0
2017-11-03T03:04:36.378Z,0
2017-11-03T03:05:37.821Z,0
2017-11-03T03:06:39.444Z,0
2017-11-03T03:07:41.173Z,0
2017-11-03T03:08:42.981Z,0
2017-11-03T03:09:44.651Z,0
2017-11-03T03:10:46.416Z,0
2017-11-03T03:11:48.091Z,0
2017-11-03T03:12:49.818Z,0
2017-11-03T03:13:51.288Z,0
2017-11-03T03:14:52.731Z,0
2017-11-03T03:15:54.186Z,0
2017-11-03T03:16:55.611Z,0
2017-11-03T03:17:57.051Z,0
2017-11-03T03:18:58.483Z,0
2017-11-03T03:19:59.954Z,0
2017-11-03T03:21:01.368Z,0
2017-11-03T03:22:02.769Z,0
2017-11-03T03:23:04.241Z,0
2017-11-03T03:24:05.679Z,0
2017-11-03T03:25:07.109Z,0
2017-11-03T03:26:08.508Z,0
2017-11-03T03:27:09.935Z,0
2017-11-03T03:28:11.390Z,0
2017-11-03T03:29:12.856Z,0
2017-11-03T03:30:14.285Z,0
2017-11-03T03:31:15.675Z,0
2017-11-03T03:32:17.408Z,0
2017-11-03T03:33:19.097Z,0
2017-11-03T03:34:20.610Z,0
2017-11-03T03:35:22.040Z,0
2017-11-03T03:36:23.446Z,0
2017-11-03T03:37:25.112Z,0
2017-11-03T03:38:26.526Z,0
2017-11-03T03:39:27.985Z,0
2017-11-03T03:40:29.402Z,0
2017-11-03T03:41:31.157Z,0
2017-11-03T03:42:32.947Z,0
2017-11-03T03:43:34.639Z,0
2017-11-03T03:44:36.334Z,0
2017-11-03T03:45:37.814Z,0
2017-11-03T03:46:39.237Z,0
2017-11-03T03:47:40.653Z,0
2017-11-03T03:48:42.169Z,0
2017-11-03T03:49:43.575Z,0
2017-11-03T03:50:45.004Z,0
2017-11-03T03:51:46.431Z,0
2017-11-03T03:52:47.879Z,0
2017-11-03T03:53:49.332Z,0
2017-11-03T03:54:50.782Z,0
2017-11-03T03:55:52.288Z,0
2017-11-03T03:56:53.719Z,0
2017-11-03T03:57:55.161Z,0
2017-11-03T03:58:56.596Z,0
2017-11-03T03:59:58.016Z,0
2017-11-03T04:00:59.447Z,0
2017-11-03T04:02:00.930Z,0
2017-11-03T04:03:02.574Z,0
2017-11-03T04:04:04.058Z,0
2017-11-03T04:05:05.454Z,0
2017-11-03T04:06:06.953Z,0
2017-11-03T04:07:08.384Z,0
2017-11-03T04:08:09.767Z,0
2017-11-03T04:09:11.178Z,0
2017-11-03T04:10:12.600Z,0
2017-11-03T04:11:14.099Z,0
2017-11-03T04:12:15.518Z,0
2017-11-03T04:13:16.960Z,0
2017-11-03T04:14:18.343Z,0
2017-11-03T04:15:19.825Z,0
2017-11-03T04:16:21.366Z,0
2017-11-03T04:17:23.051Z,0
2017-11-03T04:18:24.515Z,0
2017-11-03T04:19:25.986Z,0
2017-11-03T04:20:27.732Z,0
2017-11-03T04:21:29.425Z,0
2017-11-03T04:22:30.842Z,0
2017-11-03T04:23:32.569Z,0
2017-11-03T04:24:34.288Z,0
2017-11-03T04:25:36.014Z,0
2017-11-03T04:26:37.784Z,0
2017-11-03T04:27:39.185Z,0
2017-11-03T04:28:40.748Z,0
2017-11-03T04:29:42.229Z,0
2017-11-03T04:30:43.669Z,0
2017-11-03T04:31:45.099Z,0
2017-11-03T04:32:46.510Z,0
2017-11-03T04:33:47.967Z,0
2017-11-03T04:34:49.384Z,0
2017-11-03T04:35:50.783Z,0
2017-11-03T04:36:52.508Z,0
2017-11-03T04:37:54.206Z,0
2017-11-03T04:38:55.943Z,0
2017-11-03T04:39:58.525Z,0
2017-11-03T04:41:00.010Z,0
2017-11-03T04:42:01.397Z,0
2017-11-03T04:43:02.871Z,0
2017-11-03T04:44:04.438Z,0
2017-11-03T04:45:05.871Z,0
2017-11-03T04:46:07.354Z,0
2017-11-03T04:47:08.757Z,0
2017-11-03T04:48:10.160Z,0
2017-11-03T04:49:11.590Z,0
2017-11-03T04:50:12.996Z,0
2017-11-03T04:51:14.436Z,0
2017-11-03T04:52:15.994Z,0
2017-11-03T04:53:17.470Z,0
2017-11-03T04:54:18.941Z,0
2017-11-03T04:55:20.375Z,0
2017-11-03T04:56:22.102Z,0
2017-11-03T04:57:23.856Z,0
2017-11-03T04:58:25.282Z,0
2017-11-03T04:59:26.718Z,0
2017-11-03T05:00:28.134Z,0
2017-11-03T05:01:29.542Z,0
2017-11-03T05:02:31.045Z,0
2017-11-03T05:03:32.528Z,0
2017-11-03T05:04:33.954Z,0
2017-11-03T05:05:35.373Z,0
2017-11-03T05:06:36.823Z,0
2017-11-03T05:07:38.240Z,0
2017-11-03T05:08:39.675Z,0
2017-11-03T05:09:41.115Z,0
2017-11-03T05:10:42.619Z,0
2017-11-03T05:11:44.091Z,0
2017-11-03T05:12:45.545Z,0
2017-11-03T05:13:47.285Z,0
2017-11-03T05:14:48.985Z,0
2017-11-03T05:15:50.418Z,0
2017-11-03T05:16:51.832Z,0
2017-11-03T05:17:53.354Z,0
2017-11-03T05:18:54.785Z,0
2017-11-03T05:19:56.177Z,0
2017-11-03T05:20:57.632Z,0
2017-11-03T05:21:59.347Z,0
2017-11-03T05:23:01.061Z,0
2017-11-03T05:24:02.818Z,0
2017-11-03T05:25:04.557Z,0
2017-11-03T05:26:06.215Z,0
2017-11-03T05:27:07.659Z,0
2017-11-03T05:28:09.132Z,0
2017-11-03T05:29:10.790Z,0
2017-11-03T05:30:12.351Z,0
2017-11-03T05:31:13.795Z,0
2017-11-03T05:32:15.220Z,0
2017-11-03T05:33:16.708Z,0
2017-11-03T05:34:18.146Z,0
2017-11-03T05:35:19.590Z,0
2017-11-03T05:36:21.048Z,0
2017-11-03T05:37:22.718Z,0
2017-11-03T05:38:24.521Z,0
2017-11-03T05:39:26.200Z,0
2017-11-03T05:40:27.679Z,0
2017-11-03T05:41:29.089Z,0
2017-11-03T05:42:30.636Z,0
2017-11-03T05:43:32.076Z,0
2017-11-03T05:44:33.485Z,0
2017-11-03T05:45:34.907Z,0
2017-11-03T05:46:36.378Z,0
2017-11-03T05:47:37.817Z,0
2017-11-03T05:48:39.259Z,0
2017-11-03T05:49:40.707Z,0
2017-11-03T05:50:42.167Z,0
2017-11-03T05:51:43.631Z,0
2017-11-03T05:52:45.044Z,0
2017-11-03T05:53:46.464Z,4
2017-11-03T05:54:47.899Z,4
2017-11-03T05:55:49.317Z,0
2017-11-03T05:56:50.760Z,4
2017-11-03T05:57:52.226Z,0
2017-11-03T05:58:53.917Z,4
2017-11-03T05:59:55.697Z,4
2017-11-03T06:00:57.179Z,4
2017-11-03T06:01:58.596Z,8
2017-11-03T06:03:00.012Z,8
2017-11-03T06:04:01.418Z,8
2017-11-03T06:05:02.871Z,12
2017-11-03T06:06:04.230Z,16
2017-11-03T06:07:05.671Z,16
2017-11-03T06:08:07.120Z,24
2017-11-03T06:09:08.546Z,28
2017-11-03T06:10:09.955Z,28
2017-11-03T06:11:11.388Z,36
2017-11-03T06:12:12.816Z,36
2017-11-03T06:13:14.234Z,40
2017-11-03T06:14:15.693Z,44
2017-11-03T06:15:17.086Z,48
2017-11-03T06:16:18.511Z,60
2017-11-03T06:17:19.909Z,68
2017-11-03T06:18:21.314Z,76
2017-11-03T06:19:22.716Z,88
2017-11-03T06:20:24.107Z,96
2017-11-03T06:21:25.516Z,108
2017-11-03T06:22:26.958Z,116
2017-11-03T06:23:28.339Z,124
2017-11-03T06:24:29.736Z,128
2017-11-03T06:25:31.168Z,144
2017-11-03T06:26:32.641Z,168
2017-11-03T06:27:34.095Z,188
2017-11-03T06:28:35.522Z,192
2017-11-03T06:29:36.922Z,184
2017-11-03T06:30:38.313Z,176
2017-11-03T06:31:39.721Z,180
2017-11-03T06:32:41.156Z,184
2017-11-03T06:33:42.589Z,192
2017-11-03T06:34:44.002Z,212
2017-11-03T06:35:45.432Z,236
2017-11-03T06:36:46.843Z,256
2017-11-03T06:37:48.280Z,268
2017-11-03T06:38:49.666Z,276
2017-11-03T06:39:51.089Z,320
2017-11-03T06:40:52.546Z,376
2017-11-03T06:41:53.984Z,424
2017-11-03T06:42:55.381Z,468
2017-11-03T06:43:56.803Z,516
2017-11-03T06:44:58.208Z,564
2017-11-03T06:45:59.666Z,604
2017-11-03T06:47:01.085Z,624
2017-11-03T06:48:02.508Z,628
2017-11-03T06:49:03.902Z,640
2017-11-03T06:50:05.325Z,676
2017-11-03T06:51:06.769Z,696
2017-11-03T06:52:08.170Z,724
2017-11-03T06:53:09.625Z,760
2017-11-03T06:54:11.046Z,816
2017-11-03T06:55:12.520Z,844
2017-11-03T06:56:13.980Z,844
2017-11-03T06:57:15.388Z,852
2017-11-03T06:58:16.779Z,892
2017-11-03T06:59:18.221Z,944
2017-11-03T07:00:19.621Z,980
2017-11-03T07:01:21.264Z,984
2017-11-03T07:02:22.668Z,992
2017-11-03T07:03:24.090Z,1064
2017-11-03T07:04:25.554Z,1128
2017-11-03T07:05:26.963Z,1156
2017-11-03T07:06:28.410Z,1160
2017-11-03T07:07:29.868Z,1192
2017-11-03T07:08:31.325Z,1240
2017-11-03T07:09:32.738Z,1308
2017-11-03T07:10:34.151Z,1392
2017-11-03T07:11:35.560Z,1484
2017-11-03T07:12:36.975Z,1536
2017-11-03T07:13:38.375Z,1500
2017-11-03T07:14:39.810Z,1432
2017-11-03T07:15:41.217Z,1452
2017-11-03T07:16:42.653Z,1580
2017-11-03T07:17:44.103Z,1700
2017-11-03T07:18:45.499Z,1764
2017-11-03T07:19:46.953Z,1776
2017-11-03T07:20:48.403Z,1764
2017-11-03T07:21:49.797Z,1804
2017-11-03T07:22:51.187Z,1896
2017-11-03T07:23:52.676Z,1960
2017-11-03T07:24:54.093Z,1980
2017-11-03T07:25:55.492Z,1984
2017-11-03T07:26:56.937Z,2020
2017-11-03T07:27:58.325Z,2036
2017-11-03T07:28:59.778Z,2000
2017-11-03T07:30:01.194Z,2008
2017-11-03T07:31:02.631Z,2080
2017-11-03T07:32:04.069Z,2140
2017-11-03T07:33:05.458Z,2228
2017-11-03T07:34:06.865Z,2324
2017-11-03T07:35:08.305Z,2412
2017-11-03T07:36:09.763Z,2468
2017-11-03T07:37:11.138Z,2492
2017-11-03T07:38:12.607Z,2492
2017-11-03T07:39:14.006Z,2472
2017-11-03T07:40:15.495Z,2424
2017-11-03T07:41:16.927Z,2348
2017-11-03T07:42:18.380Z,2284
2017-11-03T07:43:19.766Z,2336
2017-11-03T07:44:21.231Z,2572
2017-11-03T07:45:22.656Z,2780
2017-11-03T07:46:24.071Z,2880
2017-11-03T07:47:25.530Z,2896
2017-11-03T07:48:26.955Z,2884
2017-11-03T07:49:28.441Z,2896
2017-11-03T07:50:29.900Z,2944
2017-11-03T07:51:31.329Z,2988
2017-11-03T07:52:32.769Z,2976
2017-11-03T07:53:34.172Z,2844
2017-11-03T07:54:35.610Z,2676
2017-11-03T07:55:37.004Z,2800
2017-11-03T07:56:38.467Z,3056
2017-11-03T07:57:39.876Z,3168
2017-11-03T07:58:41.297Z,3216
2017-11-03T07:59:42.762Z,3116
2017-11-03T08:00:44.196Z,3136
2017-11-03T08:01:45.618Z,3184
2017-11-03T08:02:47.026Z,3188
2017-11-03T08:03:48.463Z,3332
2017-11-03T08:04:49.873Z,3460
2017-11-03T08:05:51.344Z,3508
2017-11-03T08:06:52.809Z,3592
2017-11-03T08:07:54.257Z,3712
2017-11-03T08:08:55.634Z,3772
2017-11-03T08:09:57.114Z,3800
2017-11-03T08:10:58.521Z,3828
2017-11-03T08:11:59.937Z,3876
2017-11-03T08:13:01.378Z,3944
2017-11-03T08:14:02.816Z,3992
2017-11-03T08:15:04.241Z,3972
2017-11-03T08:16:05.688Z,3896
2017-11-03T08:17:07.086Z,3776
2017-11-03T08:18:08.522Z,3708
2017-11-03T08:19:09.946Z,3856
2017-11-03T08:20:11.349Z,4068
2017-11-03T08:21:12.802Z,4068
2017-11-03T08:22:14.237Z,4080
2017-11-03T08:23:15.642Z,4008
2017-11-03T08:24:17.065Z,3852
2017-11-03T08:25:18.490Z,3596
2017-11-03T08:26:19.916Z,3152
2017-11-03T08:27:21.352Z,3024
2017-11-03T08:28:23.041Z,3304
2017-11-03T08:29:24.477Z,3396
2017-11-03T08:30:25.913Z,3140
2017-11-03T08:31:27.305Z,2864
2017-11-03T08:32:28.756Z,2572
2017-11-03T08:33:30.185Z,2772
2017-11-03T08:34:31.591Z,3208
2017-11-03T08:35:33.039Z,3456
2017-11-03T08:36:34.434Z,3824
2017-11-03T08:37:35.836Z,3576
2017-11-03T08:38:37.366Z,3668
2017-11-03T08:39:38.777Z,3960
2017-11-03T08:40:40.212Z,4000
2017-11-03T08:41:41.662Z,3852
2017-11-03T08:42:43.164Z,3704
2017-11-03T08:43:44.612Z,3460
2017-11-03T08:44:46.048Z,3376
2017-11-03T08:45:47.505Z,3192
2017-11-03T08:46:48.936Z,3288
2017-11-03T08:47:50.361Z,3764
2017-11-03T08:48:51.775Z,4188
2017-11-03T08:49:53.203Z,4448
2017-11-03T08:50:54.654Z,4424
2017-11-03T08:51:56.056Z,4188
2017-11-03T08:52:57.528Z,3864
2017-11-03T08:53:58.917Z,3724
2017-11-03T08:55:00.370Z,3816
2017-11-03T08:56:01.769Z,4056
2017-11-03T08:57:03.185Z,4360
2017-11-03T08:58:04.629Z,4476
2017-11-03T08:59:06.080Z,4128
2017-11-03T09:00:07.499Z,3620
2017-11-03T09:01:08.947Z,3732
2017-11-03T09:02:10.413Z,4384
2017-11-03T09:03:11.816Z,5104
2017-11-03T09:04:13.285Z,5212
2017-11-03T09:05:14.684Z,5036
2017-11-03T09:06:16.095Z,4700
2017-11-03T09:07:17.557Z,4836
2017-11-03T09:08:19.020Z,4892
2017-11-03T09:09:20.437Z,4532
2017-11-03T09:10:21.855Z,4388
2017-11-03T09:11:23.313Z,4828
2017-11-03T09:12:24.710Z,4772
2017-11-03T09:13:26.147Z,4960
2017-11-03T09:14:27.644Z,5524
2017-11-03T09:15:29.136Z,6324
2017-11-03T09:16:30.601Z,6424
2017-11-03T09:17:32.095Z,5924
2017-11-03T09:18:33.557Z,5244
2017-11-03T09:19:35.005Z,4740
2017-11-03T09:20:36.469Z,5168
2017-11-03T09:21:37.964Z,6096
2017-11-03T09:22:39.426Z,7204
2017-11-03T09:23:40.857Z,7548
2017-11-03T09:24:42.276Z,7076
2017-11-03T09:25:43.707Z,6400
2017-11-03T09:26:45.171Z,5960
2017-11-03T09:27:46.594Z,6324
2017-11-03T09:28:48.152Z,7080
2017-11-03T09:29:49.558Z,7728
2017-11-03T09:30:51.047Z,7828
2017-11-03T09:31:52.558Z,7288
2017-11-03T09:32:54.001Z,7200
2017-11-03T09:33:55.444Z,7240
2017-11-03T09:34:56.868Z,7352
2017-11-03T09:35:58.285Z,7752
2017-11-03T09:37:00.020Z,7872
2017-11-03T09:38:01.505Z,7956
2017-11-03T09:39:03.057Z,8288
2017-11-03T09:40:04.472Z,8512
2017-11-03T09:41:05.897Z,8620
2017-11-03T09:42:07.365Z,8584
2017-11-03T09:43:08.814Z,8488
2017-11-03T09:44:10.310Z,8456
2017-11-03T09:45:11.783Z,8520
2017-11-03T09:46:13.295Z,8632
2017-11-03T09:47:15.033Z,8756
2017-11-03T09:48:16.449Z,8832
2017-11-03T09:49:17.921Z,8932
2017-11-03T09:50:19.379Z,9076
2017-11-03T09:51:20.858Z,9180
2017-11-03T09:52:22.280Z,9192
2017-11-03T09:53:23.713Z,9076
2017-11-03T09:54:25.158Z,8948
2017-11-03T09:55:26.655Z,8972
2017-11-03T09:56:28.181Z,9052
2017-11-03T09:57:29.588Z,9092
2017-11-03T09:58:31.039Z,9048
2017-11-03T09:59:32.499Z,8760
2017-11-03T10:00:33.930Z,8424
2017-11-03T10:01:35.372Z,8204
2017-11-03T10:02:36.818Z,8156
2017-11-03T10:03:38.296Z,8380
2017-11-03T10:04:39.686Z,8480
2017-11-03T10:05:41.225Z,8468
2017-11-03T10:06:42.700Z,8572
2017-11-03T10:07:44.146Z,8668
2017-11-03T10:08:45.612Z,8680
2017-11-03T10:09:47.076Z,8556
2017-11-03T10:10:48.581Z,7924
2017-11-03T10:11:50.022Z,7120
2017-11-03T10:12:51.443Z,6564
2017-11-03T10:13:52.885Z,6148
2017-11-03T10:14:54.354Z,6072
2017-11-03T10:15:55.804Z,6532
2017-11-03T10:16:57.236Z,7052
2017-11-03T10:17:58.699Z,6648
2017-11-03T10:19:00.371Z,6368
2017-11-03T10:20:01.857Z,6624
2017-11-03T10:21:03.311Z,7112
2017-11-03T10:22:04.731Z,7796
2017-11-03T10:23:06.153Z,7528
2017-11-03T10:24:07.639Z,6968
2017-11-03T10:25:09.068Z,7020
2017-11-03T10:26:10.532Z,7088
2017-11-03T10:27:11.935Z,6760
2017-11-03T10:28:13.387Z,7124
2017-11-03T10:29:14.823Z,7960
2017-11-03T10:30:16.265Z,8348
2017-11-03T10:31:17.693Z,8468
2017-11-03T10:32:19.181Z,8784
2017-11-03T10:33:20.615Z,8924
2017-11-03T10:34:22.030Z,8096
2017-11-03T10:35:23.534Z,7532
2017-11-03T10:36:24.968Z,7544
2017-11-03T10:37:26.369Z,7180
2017-11-03T10:38:27.845Z,7076
2017-11-03T10:39:29.274Z,7276
2017-11-03T10:40:30.730Z,7096
2017-11-03T10:41:32.245Z,7092
2017-11-03T10:42:33.678Z,7200
2017-11-03T10:43:35.137Z,7440
2017-11-03T10:44:36.579Z,7196
2017-11-03T10:45:38.047Z,7176
2017-11-03T10:46:39.483Z,7112
2017-11-03T10:47:40.921Z,7176
2017-11-03T10:48:42.372Z,7232
2017-11-03T10:49:43.812Z,7208
2017-11-03T10:50:45.245Z,7444
2017-11-03T10:51:46.681Z,7856
2017-11-03T10:52:48.174Z,8620
2017-11-03T10:53:49.600Z,8712
2017-11-03T10:54:51.030Z,8452
2017-11-03T10:55:52.488Z,7824
2017-11-03T10:56:53.894Z,7012
2017-11-03T10:57:55.298Z,6148
2017-11-03T10:58:56.740Z,5988
2017-11-03T10:59:58.184Z,6464
2017-11-03T11:00:59.676Z,6804
2017-11-03T11:02:01.061Z,6448
2017-11-03T11:03:02.494Z,6056
2017-11-03T11:04:03.935Z,5792
2017-11-03T11:05:05.375Z,6172
2017-11-03T11:06:06.808Z,6596
2017-11-03T11:07:08.598Z,6188
2017-11-03T11:08:10.007Z,5732
2017-11-03T11:09:11.442Z,5912
2017-11-03T11:10:12.853Z,6176
2017-11-03T11:11:14.320Z,6180
2017-11-03T11:12:15.730Z,5956
2017-11-03T11:13:17.179Z,6164
2017-11-03T11:14:18.648Z,6468
2017-11-03T11:15:20.082Z,7000
2017-11-03T11:16:21.532Z,7224
2017-11-03T11:17:23.256Z,6732
2017-11-03T11:18:24.732Z,6432
2017-11-03T11:19:26.172Z,6472
2017-11-03T11:20:27.621Z,7320
2017-11-03T11:21:29.061Z,7896
2017-11-03T11:22:30.502Z,7996
2017-11-03T11:23:31.944Z,7936
2017-11-03T11:24:33.436Z,7960
2017-11-03T11:25:34.897Z,8024
2017-11-03T11:26:36.369Z,8196
2017-11-03T11:27:37.843Z,8316
2017-11-03T11:28:39.301Z,8436
2017-11-03T11:29:40.797Z,8364
2017-11-03T11:30:42.227Z,8284
2017-11-03T11:31:43.663Z,8116
2017-11-03T11:32:45.125Z,7892
2017-11-03T11:33:46.586Z,7552
2017-11-03T11:34:48.025Z,7048
2017-11-03T11:35:49.500Z,6548
2017-11-03T11:36:50.908Z,6356
2017-11-03T11:37:52.359Z,6656
2017-11-03T11:38:53.814Z,7356
2017-11-03T11:39:55.284Z,7904
2017-11-03T11:40:56.758Z,8116
2017-11-03T11:41:58.258Z,8180
2017-11-03T11:42:59.664Z,8212
2017-11-03T11:44:01.148Z,8184
2017-11-03T11:45:02.638Z,8180
2017-11-03T11:46:04.091Z,8212
2017-11-03T11:47:05.494Z,8344
2017-11-03T11:48:06.968Z,8468
2017-11-03T11:49:08.415Z,8596
2017-11-03T11:50:09.834Z,8836
2017-11-03T11:51:11.345Z,9188
2017-11-03T11:52:12.778Z,9632
2017-11-03T11:53:14.263Z,10352
2017-11-03T11:54:15.700Z,11672
2017-11-03T11:55:17.217Z,13424
2017-11-03T11:56:18.665Z,16224
2017-11-03T11:57:20.189Z,18432
2017-11-03T11:58:21.618Z,20672
2017-11-03T11:59:23.073Z,23616
2017-11-03T12:00:24.510Z,22368
2017-11-03T12:01:25.977Z,19680
2017-11-03T12:02:27.470Z,17600
2017-11-03T12:03:29.162Z,16512
2017-11-03T12:04:30.641Z,16672
2017-11-03T12:05:32.107Z,16448
2017-11-03T12:06:33.612Z,15840
2017-11-03T12:07:35.047Z,14740
2017-11-03T12:08:36.469Z,14204
2017-11-03T12:09:37.893Z,13888
2017-11-03T12:10:39.324Z,13260
2017-11-03T12:11:40.752Z,12408
2017-11-03T12:12:42.226Z,11004
2017-11-03T12:13:43.769Z,10168
2017-11-03T12:14:45.187Z,9936
2017-11-03T12:15:46.595Z,9892
2017-11-03T12:16:48.187Z,10000
2017-11-03T12:17:49.611Z,10544
2017-11-03T12:18:51.063Z,10844
2017-11-03T12:19:52.504Z,10664
2017-11-03T12:20:53.955Z,10128
2017-11-03T12:21:55.391Z,9668
2017-11-03T12:22:56.856Z,9496
2017-11-03T12:23:58.288Z,9496
2017-11-03T12:24:59.741Z,9408
2017-11-03T12:26:01.201Z,9044
2017-11-03T12:27:02.631Z,8788
2017-11-03T12:28:04.100Z,8652
2017-11-03T12:29:05.504Z,8612
2017-11-03T12:30:07.016Z,8448
2017-11-03T12:31:08.483Z,8464
2017-11-03T12:32:09.954Z,8732
2017-11-03T12:33:11.397Z,9092
2017-11-03T12:34:12.852Z,9600
2017-11-03T12:35:14.356Z,10168
2017-11-03T12:36:15.936Z,10396
2017-11-03T12:37:17.358Z,10600
2017-11-03T12:38:18.841Z,10992
2017-11-03T12:39:20.316Z,11668
2017-11-03T12:40:21.725Z,12564
2017-11-03T12:41:23.205Z,15584
2017-11-03T12:42:24.675Z,14144
2017-11-03T12:43:26.091Z,13828
2017-11-03T12:44:27.555Z,14508
2017-11-03T12:45:28.987Z,15024
2017-11-03T12:46:30.459Z,14360
2017-11-03T12:47:31.956Z,13920
2017-11-03T12:48:33.428Z,13980
2017-11-03T12:49:34.835Z,14004
2017-11-03T12:50:36.302Z,13496
2017-11-03T12:51:37.823Z,13140
2017-11-03T12:52:39.641Z,13424
2017-11-03T12:53:41.360Z,12836
2017-11-03T12:54:42.818Z,12632
2017-11-03T12:55:44.272Z,12000
2017-11-03T12:56:45.718Z,11084
2017-11-03T12:57:47.159Z,10216
2017-11-03T12:58:48.624Z,9464
2017-11-03T12:59:50.088Z,9056
2017-11-03T13:00:51.577Z,8432
2017-11-03T13:01:53.062Z,7748
2017-11-03T13:02:54.505Z,7216
2017-11-03T13:03:55.956Z,6628
2017-11-03T13:04:57.420Z,5960
2017-11-03T13:05:58.878Z,5932
2017-11-03T13:07:00.340Z,6788
2017-11-03T13:08:01.812Z,7976
2017-11-03T13:09:03.340Z,8552
2017-11-03T13:10:04.790Z,8748
2017-11-03T13:11:06.223Z,8500
2017-11-03T13:12:07.633Z,8268
2017-11-03T13:13:09.064Z,8676
2017-11-03T13:14:10.498Z,9312
2017-11-03T13:15:11.941Z,10892
2017-11-03T13:16:13.388Z,13632
2017-11-03T13:17:14.835Z,15552
2017-11-03T13:18:16.272Z,17408
2017-11-03T13:19:17.734Z,20384
2017-11-03T13:20:19.182Z,21760
2017-11-03T13:21:20.669Z,21024
2017-11-03T13:22:22.092Z,19232
2017-11-03T13:23:23.576Z,16032
2017-11-03T13:24:25.107Z,13764
2017-11-03T13:25:26.547Z,13832
2017-11-03T13:26:28.005Z,13580
2017-11-03T13:27:29.451Z,13716
2017-11-03T13:28:30.894Z,13888
2017-11-03T13:29:32.327Z,13400
2017-11-03T13:30:33.795Z,12744
2017-11-03T13:31:35.226Z,13004
2017-11-03T13:32:36.664Z,13524
2017-11-03T13:33:38.082Z,12392
2017-11-03T13:34:39.516Z,11932
2017-11-03T13:35:40.955Z,12680
2017-11-03T13:36:42.394Z,12964
2017-11-03T13:37:43.891Z,12988
2017-11-03T13:38:45.317Z,12300
2017-11-03T13:39:46.742Z,11556
2017-11-03T13:40:48.159Z,11104
2017-11-03T13:41:49.625Z,10776
2017-11-03T13:42:51.069Z,10784
2017-11-03T13:43:52.491Z,10872
2017-11-03T13:44:53.938Z,11040
2017-11-03T13:45:55.382Z,10800
2017-11-03T13:46:56.974Z,10524
2017-11-03T13:47:58.394Z,10396
2017-11-03T13:48:59.797Z,10348
2017-11-03T13:50:01.209Z,10268
2017-11-03T13:51:02.682Z,9900
2017-11-03T13:52:04.110Z,9464
2017-11-03T13:53:05.551Z,9156
2017-11-03T13:54:06.962Z,9292
2017-11-03T13:55:08.453Z,9556
2017-11-03T13:56:09.878Z,9736
2017-11-03T13:57:11.282Z,9520
2017-11-03T13:58:12.704Z,9392
2017-11-03T13:59:14.205Z,9324
2017-11-03T14:00:15.650Z,9376
2017-11-03T14:01:17.074Z,9356
2017-11-03T14:02:18.522Z,9284
2017-11-03T14:03:20.167Z,9100
2017-11-03T14:04:21.588Z,9020
2017-11-03T14:05:23.033Z,8824
2017-11-03T14:06:24.455Z,8788
2017-11-03T14:07:25.976Z,8512
2017-11-03T14:08:27.443Z,8356
2017-11-03T14:09:28.887Z,8428
2017-11-03T14:10:30.311Z,8468
2017-11-03T14:11:31.904Z,8644
2017-11-03T14:12:33.660Z,8512
2017-11-03T14:13:35.076Z,8360